Ivolandia, Brazil
Current Conditions -  °F | °C
As of 7:00 AM on Monday 20 Oct 2014 (Local Time) from SBGO Reporting Station
Clear Clear  
Wind Chill: 72°   Ceiling: Unl
Heat Index: 72°   Visibility: 5mi
Dew Point: 61°   Wind: 6mph
Humidity: 69%   Direction: 240°WSW
Pressure: 30.06"   Gusts: NA
Location:  16.58°S, 50.85°W
Report Text: SBGO 201000Z 24005KT 8000 NSC 22/16 Q1018
Loading
Personal Weather Stations






























Interactive Weather Map
Tropical Storm Tracking
New forecast layout! Learn more

10-Day Weather Forecast

Advertisements
Track Severe Weather on mobile